Time;durP1;ratioP1;P1;durP2;ratioP2;P2;SDS_P1;SDS_P2;PMS_P1;PMS_P2;Temp;Humidity;BMP_temperature;BMP_pressure;BME280_temperature;BME280_humidity;BME280_pressure;Samples;Min_cycle;Max_cycle;Signal;HPM_P1;HPM_P2
2022/12/24 00:00:23;;;;;;;;;;;11.30;99.90;;;;;;5072053;28;19935;-79
2022/12/24 00:02:50;;;;;;;;;;;11.20;99.90;;;;;;5055065;28;19924;-78
2022/12/24 00:05:16;;;;;;;;;;;11.30;99.90;;;;;;5065679;28;19932;-79
2022/12/24 00:07:43;;;;;;;;;;;11.20;99.90;;;;;;5064751;28;19933;-78
2022/12/24 00:10:11;;;;;;;;;;;11.20;99.90;;;;;;5066550;28;19932;-78
2022/12/24 00:12:38;;;;;;;;;;;11.20;99.90;;;;;;5064459;28;19940;-78
2022/12/24 00:15:05;;;;;;;;;;;11.30;99.90;;;;;;5062040;28;19928;-78
2022/12/24 00:17:31;;;;;;;;;;;11.20;99.90;;;;;;5062627;28;20409;-78
2022/12/24 00:19:58;;;;;;;;;;;11.20;99.90;;;;;;5064229;28;19936;-78
2022/12/24 00:22:24;;;;;;;;;;;11.20;99.90;;;;;;5059977;28;19924;-79
2022/12/24 00:24:51;;;;;;;;;;;11.20;99.90;;;;;;5059399;28;19932;-78
2022/12/24 00:27:19;;;;;;;;;;;11.20;99.90;;;;;;5059401;28;19928;-79
2022/12/24 00:29:45;;;;;;;;;;;11.20;99.90;;;;;;5063957;28;19994;-78
2022/12/24 00:32:12;;;;;;;;;;;11.20;99.90;;;;;;5061817;28;20405;-78
2022/12/24 00:34:39;;;;;;;;;;;11.20;99.90;;;;;;5062213;28;20437;-79
2022/12/24 00:37:05;;;;;;;;;;;11.10;99.90;;;;;;5066131;28;19936;-79
2022/12/24 00:39:33;;;;;;;;;;;11.20;99.90;;;;;;5057048;28;19986;-79
2022/12/24 00:41:59;;;;;;;;;;;11.20;99.90;;;;;;5053846;28;20075;-77
2022/12/24 00:44:27;;;;;;;;;;;11.10;99.90;;;;;;5070338;28;19924;-79
2022/12/24 00:46:53;;;;;;;;;;;11.20;99.90;;;;;;5062559;28;19936;-79
2022/12/24 00:49:20;;;;;;;;;;;11.10;99.90;;;;;;5063510;28;19924;-76
2022/12/24 00:51:47;;;;;;;;;;;11.10;99.90;;;;;;5063123;28;19932;-79
2022/12/24 00:54:14;;;;;;;;;;;11.10;99.90;;;;;;5066475;28;19962;-79
2022/12/24 00:56:40;;;;;;;;;;;11.10;99.90;;;;;;5061375;28;19932;-79
2022/12/24 00:59:07;;;;;;;;;;;11.10;99.90;;;;;;5060040;28;20352;-80
2022/12/24 01:01:35;;;;;;;;;;;11.10;99.90;;;;;;5060920;28;19925;-78
2022/12/24 01:06:42;;;;;;;;;;;11.10;99.90;;;;;;5063577;28;19942;-78
2022/12/24 01:09:09;;;;;;;;;;;11.10;99.90;;;;;;5063603;28;19925;-79
2022/12/24 01:11:36;;;;;;;;;;;11.10;99.90;;;;;;5062685;28;19963;-79
2022/12/24 01:14:02;;;;;;;;;;;11.10;99.90;;;;;;5059976;28;19929;-78
2022/12/24 01:16:29;;;;;;;;;;;11.10;99.90;;;;;;5059364;28;21475;-79
2022/12/24 01:18:56;;;;;;;;;;;11.10;99.90;;;;;;5065823;28;19989;-80
2022/12/24 01:21:23;;;;;;;;;;;11.10;99.90;;;;;;5061714;28;20440;-79
2022/12/24 01:23:50;;;;;;;;;;;11.10;99.90;;;;;;5065668;28;19932;-78
2022/12/24 01:26:16;;;;;;;;;;;11.10;99.90;;;;;;5067926;28;19947;-79
2022/12/24 01:28:43;;;;;;;;;;;11.00;99.90;;;;;;5060768;28;19925;-78
2022/12/24 01:31:10;;;;;;;;;;;11.00;99.90;;;;;;5060755;28;19925;-80
2022/12/24 01:33:36;;;;;;;;;;;11.00;99.90;;;;;;5064522;28;19932;-79
2022/12/24 01:36:05;;;;;;;;;;;11.00;99.90;;;;;;5060613;28;20344;-78
2022/12/24 01:38:31;;;;;;;;;;;11.00;99.90;;;;;;5061214;28;20432;-79
2022/12/24 01:43:42;;;;;;;;;;;11.00;99.90;;;;;;5066535;28;19974;-78
2022/12/24 01:46:11;;;;;;;;;;;11.00;99.90;;;;;;5062818;28;19932;-80
2022/12/24 01:48:39;;;;;;;;;;;11.00;99.90;;;;;;5062646;28;21112;-79
2022/12/24 01:51:12;;;;;;;;;;;11.00;99.90;;;;;;5065176;28;20398;-79
2022/12/24 01:53:39;;;;;;;;;;;10.90;99.90;;;;;;5067940;28;19932;-79
2022/12/24 01:56:06;;;;;;;;;;;10.90;99.90;;;;;;5062218;28;20436;-79
2022/12/24 01:58:34;;;;;;;;;;;10.90;99.90;;;;;;5052808;28;20259;-79
2022/12/24 02:01:01;;;;;;;;;;;10.90;99.90;;;;;;5064818;28;19978;-80
2022/12/24 02:03:27;;;;;;;;;;;10.90;99.90;;;;;;5063681;28;19951;-79
2022/12/24 02:05:56;;;;;;;;;;;10.90;99.90;;;;;;5063449;28;19933;-80
2022/12/24 02:08:23;;;;;;;;;;;10.90;99.90;;;;;;5065186;28;19928;-79
2022/12/24 02:11:09;;;;;;;;;;;10.80;99.90;;;;;;5063464;28;19932;-79
2022/12/24 02:13:36;;;;;;;;;;;10.80;99.90;;;;;;5071216;28;19940;-78
2022/12/24 02:16:05;;;;;;;;;;;10.80;99.90;;;;;;5061626;28;20401;-80
2022/12/24 02:18:37;;;;;;;;;;;10.90;99.90;;;;;;5070444;28;20396;-79
2022/12/24 02:21:24;;;;;;;;;;;10.80;99.90;;;;;;5057110;28;19954;-78
2022/12/24 02:24:09;;;;;;;;;;;10.80;99.90;;;;;;5061790;28;19994;-79
2022/12/24 02:26:45;;;;;;;;;;;10.80;99.90;;;;;;5063883;28;19928;-79
2022/12/24 02:29:22;;;;;;;;;;;10.80;99.90;;;;;;5058731;28;20397;-76
2022/12/24 02:31:51;;;;;;;;;;;10.70;99.90;;;;;;5059681;28;20388;-79
2022/12/24 02:34:19;;;;;;;;;;;10.70;99.90;;;;;;5058532;28;19932;-78
2022/12/24 02:36:48;;;;;;;;;;;10.70;99.90;;;;;;5058371;28;19945;-79
2022/12/24 02:39:17;;;;;;;;;;;10.70;99.90;;;;;;5056053;28;19940;-80
2022/12/24 02:42:06;;;;;;;;;;;10.70;99.90;;;;;;5062773;28;20382;-79
2022/12/24 02:44:36;;;;;;;;;;;10.60;99.90;;;;;;5060741;28;19920;-79
2022/12/24 02:47:05;;;;;;;;;;;10.70;99.90;;;;;;5064549;28;19921;-79
2022/12/24 02:49:31;;;;;;;;;;;10.70;99.90;;;;;;5063417;28;20371;-79
2022/12/24 02:51:58;;;;;;;;;;;10.60;99.90;;;;;;5064367;28;19935;-79
2022/12/24 02:54:25;;;;;;;;;;;10.60;99.90;;;;;;5068431;28;19925;-79
2022/12/24 02:57:03;;;;;;;;;;;10.60;99.90;;;;;;5064958;28;19928;-79
2022/12/24 02:59:44;;;;;;;;;;;10.60;99.90;;;;;;5061151;28;19935;-79
2022/12/24 03:02:18;;;;;;;;;;;10.60;99.90;;;;;;5067817;28;20506;-78
2022/12/24 03:04:48;;;;;;;;;;;10.60;99.90;;;;;;5063244;28;19983;-79
2022/12/24 03:07:16;;;;;;;;;;;10.60;99.90;;;;;;5064152;28;19958;-79
2022/12/24 03:09:55;;;;;;;;;;;10.60;99.90;;;;;;5070168;28;19978;-79
2022/12/24 03:12:24;;;;;;;;;;;10.50;99.90;;;;;;5069081;28;19931;-80
2022/12/24 03:14:51;;;;;;;;;;;10.50;99.90;;;;;;5063034;28;19928;-78
2022/12/24 03:17:19;;;;;;;;;;;10.50;99.90;;;;;;5062067;28;19978;-76
2022/12/24 03:19:46;;;;;;;;;;;10.60;99.90;;;;;;5059518;28;19925;-79
2022/12/24 03:22:13;;;;;;;;;;;10.60;99.90;;;;;;5061579;28;20042;-78
2022/12/24 03:24:40;;;;;;;;;;;10.50;99.90;;;;;;5062816;28;19924;-78
2022/12/24 03:27:08;;;;;;;;;;;10.50;99.90;;;;;;5060107;28;19929;-79
2022/12/24 03:29:35;;;;;;;;;;;10.50;99.90;;;;;;5059946;28;19986;-80
2022/12/24 03:32:02;;;;;;;;;;;10.50;99.90;;;;;;5054479;28;19955;-79
2022/12/24 03:34:30;;;;;;;;;;;10.50;99.90;;;;;;5057413;28;19928;-79
2022/12/24 03:36:57;;;;;;;;;;;10.40;99.90;;;;;;5058974;28;19940;-80
2022/12/24 03:39:24;;;;;;;;;;;10.50;99.90;;;;;;5064716;28;20399;-79
2022/12/24 03:41:50;;;;;;;;;;;10.50;99.90;;;;;;5058886;28;19943;-81
2022/12/24 03:44:17;;;;;;;;;;;10.50;99.90;;;;;;5065875;28;19928;-80
2022/12/24 03:46:43;;;;;;;;;;;10.50;99.90;;;;;;5058938;28;20386;-79
2022/12/24 03:49:10;;;;;;;;;;;10.50;99.90;;;;;;5064868;28;19924;-79
2022/12/24 03:51:38;;;;;;;;;;;10.40;99.90;;;;;;5064332;28;19966;-79
2022/12/24 03:54:04;;;;;;;;;;;10.40;99.90;;;;;;5063472;28;19925;-79
2022/12/24 03:56:31;;;;;;;;;;;10.50;99.90;;;;;;5063696;28;19955;-79
2022/12/24 03:58:57;;;;;;;;;;;10.40;99.90;;;;;;5056456;28;20345;-79
2022/12/24 04:01:24;;;;;;;;;;;10.40;99.90;;;;;;5054849;28;19933;-81
2022/12/24 04:03:50;;;;;;;;;;;10.40;99.90;;;;;;5065968;28;20002;-79
2022/12/24 04:06:17;;;;;;;;;;;10.40;99.90;;;;;;5066504;28;19929;-79
2022/12/24 04:08:45;;;;;;;;;;;10.40;99.90;;;;;;5070892;28;19924;-78
2022/12/24 04:11:13;;;;;;;;;;;10.40;99.90;;;;;;5065024;28;20336;-78
2022/12/24 04:13:39;;;;;;;;;;;10.40;99.90;;;;;;5071950;28;19924;-79
2022/12/24 04:16:07;;;;;;;;;;;10.40;99.90;;;;;;5066256;28;19951;-80
2022/12/24 04:18:34;;;;;;;;;;;10.40;99.90;;;;;;5058782;28;19933;-79
2022/12/24 04:21:01;;;;;;;;;;;10.40;99.90;;;;;;5065544;28;19925;-80
2022/12/24 04:23:29;;;;;;;;;;;10.40;99.90;;;;;;5070103;28;19932;-80
2022/12/24 04:25:58;;;;;;;;;;;10.40;99.90;;;;;;5067592;28;19932;-78
2022/12/24 04:28:25;;;;;;;;;;;10.40;99.90;;;;;;5063116;28;19932;-79
2022/12/24 04:30:51;;;;;;;;;;;10.40;99.90;;;;;;5061481;28;20386;-80
2022/12/24 04:33:18;;;;;;;;;;;10.40;99.90;;;;;;5066312;28;19978;-79
2022/12/24 04:35:44;;;;;;;;;;;10.40;99.90;;;;;;5067063;28;19925;-79
2022/12/24 04:38:11;;;;;;;;;;;10.40;99.90;;;;;;5062084;28;19932;-78
2022/12/24 04:40:37;;;;;;;;;;;10.40;99.90;;;;;;5062705;28;19952;-78
2022/12/24 04:43:05;;;;;;;;;;;10.30;99.90;;;;;;5059883;28;19928;-80
2022/12/24 04:45:32;;;;;;;;;;;10.30;99.90;;;;;;5061319;28;20427;-79
2022/12/24 04:47:58;;;;;;;;;;;10.30;99.90;;;;;;5063733;28;19924;-79
2022/12/24 04:50:25;;;;;;;;;;;10.30;99.90;;;;;;5062063;28;19925;-79
2022/12/24 04:52:51;;;;;;;;;;;10.30;99.90;;;;;;5062292;28;19928;-77
2022/12/24 04:55:18;;;;;;;;;;;10.30;99.90;;;;;;5061006;28;20328;-79
2022/12/24 04:57:45;;;;;;;;;;;10.30;99.90;;;;;;5067471;28;19924;-80
2022/12/24 05:00:13;;;;;;;;;;;10.30;99.90;;;;;;5060727;28;20393;-78
2022/12/24 05:02:40;;;;;;;;;;;10.30;99.90;;;;;;5062193;28;19929;-78
2022/12/24 05:05:06;;;;;;;;;;;10.30;99.90;;;;;;5065214;28;20406;-78
2022/12/24 05:07:33;;;;;;;;;;;10.30;99.90;;;;;;5062070;28;19925;-80
2022/12/24 05:10:00;;;;;;;;;;;10.30;99.90;;;;;;5068332;28;19924;-79
2022/12/24 05:12:26;;;;;;;;;;;10.30;99.90;;;;;;5062612;28;20345;-78
2022/12/24 05:14:53;;;;;;;;;;;10.30;99.90;;;;;;5062104;28;19925;-79
2022/12/24 05:17:21;;;;;;;;;;;10.30;99.90;;;;;;5059315;28;19940;-78
2022/12/24 05:19:47;;;;;;;;;;;10.30;99.90;;;;;;5063141;28;19928;-78
2022/12/24 05:27:57;;;;;;;;;;;10.20;99.90;;;;;;5002374;28;20938;-78
2022/12/24 05:30:23;;;;;;;;;;;10.30;99.90;;;;;;4999870;28;19932;-80
2022/12/24 05:32:51;;;;;;;;;;;10.30;99.90;;;;;;5024313;28;19970;-78
2022/12/24 05:35:18;;;;;;;;;;;10.30;99.90;;;;;;5060792;28;19931;-78
2022/12/24 05:37:44;;;;;;;;;;;10.30;99.90;;;;;;5062894;28;19933;-78
2022/12/24 05:40:11;;;;;;;;;;;10.30;99.90;;;;;;5072867;28;19943;-80
2022/12/24 05:42:37;;;;;;;;;;;10.30;99.90;;;;;;5063455;28;19932;-79
2022/12/24 05:45:04;;;;;;;;;;;10.30;99.90;;;;;;5060318;28;19967;-79
2022/12/24 05:47:31;;;;;;;;;;;10.20;99.90;;;;;;5062810;28;19931;-80
2022/12/24 05:49:59;;;;;;;;;;;10.20;99.90;;;;;;5063157;28;19932;-79
2022/12/24 05:52:25;;;;;;;;;;;10.20;99.90;;;;;;5059451;28;19924;-79
2022/12/24 05:54:52;;;;;;;;;;;10.10;99.90;;;;;;5064478;28;21178;-79
2022/12/24 05:57:18;;;;;;;;;;;10.20;99.90;;;;;;5063766;28;19925;-77
2022/12/24 05:59:45;;;;;;;;;;;10.20;99.90;;;;;;5065996;28;19978;-78
2022/12/24 06:02:11;;;;;;;;;;;10.20;99.90;;;;;;5060115;28;19947;-79
2022/12/24 06:04:38;;;;;;;;;;;10.20;99.90;;;;;;5061459;28;19931;-79
2022/12/24 06:07:06;;;;;;;;;;;10.20;99.90;;;;;;5060249;28;19932;-79
2022/12/24 06:09:32;;;;;;;;;;;10.20;99.90;;;;;;5062292;28;19940;-80
2022/12/24 06:11:59;;;;;;;;;;;10.20;99.90;;;;;;5061812;28;19928;-78
2022/12/24 06:14:25;;;;;;;;;;;10.20;99.90;;;;;;5063067;28;19940;-79
2022/12/24 06:16:52;;;;;;;;;;;10.20;99.90;;;;;;5063702;28;19928;-79
2022/12/24 06:19:18;;;;;;;;;;;10.20;99.90;;;;;;5060501;28;19933;-78
2022/12/24 06:21:45;;;;;;;;;;;10.10;99.90;;;;;;5062556;28;19978;-79
2022/12/24 06:24:13;;;;;;;;;;;10.20;99.90;;;;;;5063422;28;19937;-78
2022/12/24 06:26:39;;;;;;;;;;;10.20;99.90;;;;;;5060319;28;20533;-78
2022/12/24 06:29:06;;;;;;;;;;;10.20;99.90;;;;;;5054644;28;19979;-79
2022/12/24 06:31:33;;;;;;;;;;;10.10;99.90;;;;;;5055785;28;19928;-79
2022/12/24 06:33:59;;;;;;;;;;;10.10;99.90;;;;;;5059347;28;19983;-80
2022/12/24 06:36:26;;;;;;;;;;;10.10;99.90;;;;;;5057101;28;19928;-80
2022/12/24 06:38:53;;;;;;;;;;;10.10;99.90;;;;;;5058980;28;19925;-79
2022/12/24 06:41:21;;;;;;;;;;;10.10;99.90;;;;;;5056150;28;19932;-78
2022/12/24 06:43:48;;;;;;;;;;;10.10;99.90;;;;;;5057498;28;20464;-79
2022/12/24 06:46:15;;;;;;;;;;;10.10;99.90;;;;;;5060014;28;19931;-80
2022/12/24 06:48:42;;;;;;;;;;;10.10;99.90;;;;;;5063672;28;19925;-81
2022/12/24 06:51:09;;;;;;;;;;;10.10;99.90;;;;;;5062059;28;19975;-79
2022/12/24 06:53:35;;;;;;;;;;;10.00;99.90;;;;;;5058885;28;19951;-80
2022/12/24 06:56:02;;;;;;;;;;;10.10;99.90;;;;;;5058895;28;19928;-79
2022/12/24 06:58:31;;;;;;;;;;;10.10;99.90;;;;;;5066007;28;20011;-79
2022/12/24 07:00:57;;;;;;;;;;;10.10;99.90;;;;;;5057612;28;20562;-80
2022/12/24 07:03:24;;;;;;;;;;;10.10;99.90;;;;;;5055287;28;19929;-79
2022/12/24 07:05:50;;;;;;;;;;;10.10;99.90;;;;;;5059580;28;19935;-79
2022/12/24 07:08:17;;;;;;;;;;;10.10;99.90;;;;;;5061801;28;19928;-79
2022/12/24 07:10:43;;;;;;;;;;;10.00;99.90;;;;;;5055984;28;19932;-80
2022/12/24 07:13:10;;;;;;;;;;;10.10;99.90;;;;;;5063181;28;19929;-79
2022/12/24 07:15:38;;;;;;;;;;;10.00;99.90;;;;;;5054195;28;19991;-80
2022/12/24 07:18:04;;;;;;;;;;;10.00;99.90;;;;;;5058059;28;20279;-80
2022/12/24 07:20:31;;;;;;;;;;;10.00;99.90;;;;;;5055595;28;19944;-79
2022/12/24 07:22:57;;;;;;;;;;;10.00;99.90;;;;;;5044131;28;19929;-79
2022/12/24 07:25:24;;;;;;;;;;;10.10;99.90;;;;;;5056987;28;19928;-72
2022/12/24 07:27:50;;;;;;;;;;;10.00;99.90;;;;;;5065874;28;19936;-73
2022/12/24 07:30:17;;;;;;;;;;;10.10;99.90;;;;;;5060394;28;19936;-71
2022/12/24 07:32:45;;;;;;;;;;;10.00;99.90;;;;;;5062306;28;19932;-72
2022/12/24 07:35:11;;;;;;;;;;;10.00;99.90;;;;;;5065957;28;19924;-72
2022/12/24 07:37:38;;;;;;;;;;;10.00;99.90;;;;;;5069321;28;20312;-73
2022/12/24 07:40:08;;;;;;;;;;;10.00;99.90;;;;;;5069708;28;19925;-72
2022/12/24 07:42:35;;;;;;;;;;;10.00;99.90;;;;;;5066782;28;19986;-81
2022/12/24 07:45:01;;;;;;;;;;;10.00;99.90;;;;;;5058561;28;19932;-80
2022/12/24 07:47:28;;;;;;;;;;;10.00;99.90;;;;;;5061037;28;19938;-81
2022/12/24 07:49:55;;;;;;;;;;;10.00;99.90;;;;;;5066174;28;20397;-81
2022/12/24 07:52:22;;;;;;;;;;;10.00;99.90;;;;;;5058461;28;19925;-80
2022/12/24 07:54:49;;;;;;;;;;;10.00;99.90;;;;;;5067338;28;19925;-79
2022/12/24 07:57:15;;;;;;;;;;;10.10;99.90;;;;;;5056618;28;19932;-80
2022/12/24 07:59:42;;;;;;;;;;;10.00;99.90;;;;;;5061961;28;20011;-80
2022/12/24 08:02:09;;;;;;;;;;;10.00;99.90;;;;;;5059668;28;19951;-80
2022/12/24 08:04:36;;;;;;;;;;;10.00;99.90;;;;;;5064988;28;19928;-80
2022/12/24 08:07:04;;;;;;;;;;;10.10;99.90;;;;;;5065569;28;19932;-81
2022/12/24 08:09:31;;;;;;;;;;;10.00;99.90;;;;;;5065023;28;19954;-82
2022/12/24 08:11:57;;;;;;;;;;;10.00;99.90;;;;;;5067391;28;19985;-81
2022/12/24 08:14:24;;;;;;;;;;;10.00;99.90;;;;;;5069996;28;19928;-80
2022/12/24 08:16:50;;;;;;;;;;;10.00;99.90;;;;;;5064921;28;19937;-80
2022/12/24 08:19:17;;;;;;;;;;;10.10;99.90;;;;;;5063317;28;19928;-81
2022/12/24 08:21:43;;;;;;;;;;;10.00;99.90;;;;;;5063479;28;19928;-80
2022/12/24 08:24:11;;;;;;;;;;;10.00;99.90;;;;;;5066185;28;19932;-81
2022/12/24 08:26:38;;;;;;;;;;;10.00;99.90;;;;;;5060555;28;19951;-80
2022/12/24 08:29:05;;;;;;;;;;;10.00;99.90;;;;;;5065023;28;19924;-81
2022/12/24 08:31:35;;;;;;;;;;;10.10;99.90;;;;;;5065276;28;19928;-82
2022/12/24 08:34:01;;;;;;;;;;;10.00;99.90;;;;;;5062094;28;19939;-80
2022/12/24 08:36:28;;;;;;;;;;;10.00;99.90;;;;;;5062526;28;19990;-80
2022/12/24 08:38:54;;;;;;;;;;;10.00;99.90;;;;;;5064802;28;20349;-79
2022/12/24 08:41:22;;;;;;;;;;;10.10;99.90;;;;;;5072706;28;20533;-81
2022/12/24 08:43:49;;;;;;;;;;;10.00;99.90;;;;;;5067726;28;20309;-81
2022/12/24 08:46:15;;;;;;;;;;;10.00;99.90;;;;;;5061988;28;19933;-81
2022/12/24 08:48:42;;;;;;;;;;;10.00;99.90;;;;;;5060744;28;19928;-80
2022/12/24 08:51:09;;;;;;;;;;;10.00;99.90;;;;;;5053280;28;19931;-81
2022/12/24 08:53:36;;;;;;;;;;;10.10;99.90;;;;;;5061383;28;19929;-81
2022/12/24 08:56:03;;;;;;;;;;;10.00;99.90;;;;;;5064127;28;19928;-82
2022/12/24 08:58:31;;;;;;;;;;;10.10;99.90;;;;;;5067544;28;19933;-80
2022/12/24 09:00:58;;;;;;;;;;;10.00;99.90;;;;;;5060810;28;21733;-81
2022/12/24 09:03:25;;;;;;;;;;;10.00;99.90;;;;;;5062808;28;19935;-81
2022/12/24 09:05:52;;;;;;;;;;;10.00;99.90;;;;;;5062536;28;19925;-81
2022/12/24 09:08:19;;;;;;;;;;;10.00;99.90;;;;;;5060846;28;19928;-81
2022/12/24 09:10:45;;;;;;;;;;;10.10;99.90;;;;;;5056727;28;19932;-82
2022/12/24 09:13:12;;;;;;;;;;;10.10;99.90;;;;;;5049110;28;19932;-81
2022/12/24 09:15:40;;;;;;;;;;;10.10;99.90;;;;;;5067240;28;19952;-80
2022/12/24 09:18:06;;;;;;;;;;;10.00;99.90;;;;;;5063011;28;19924;-82
2022/12/24 09:20:33;;;;;;;;;;;10.00;99.90;;;;;;5066695;28;19928;-82
2022/12/24 09:23:00;;;;;;;;;;;10.10;99.90;;;;;;5067227;28;19964;-79
2022/12/24 09:25:26;;;;;;;;;;;10.10;99.90;;;;;;5061674;28;19932;-82
2022/12/24 09:27:53;;;;;;;;;;;10.10;99.90;;;;;;5067175;28;19925;-81
2022/12/24 09:30:20;;;;;;;;;;;10.10;99.90;;;;;;5064674;28;19925;-81
2022/12/24 09:32:47;;;;;;;;;;;10.10;99.90;;;;;;5063227;28;19929;-83
2022/12/24 09:35:14;;;;;;;;;;;10.10;99.90;;;;;;5065303;28;19931;-82
2022/12/24 09:37:41;;;;;;;;;;;10.10;99.90;;;;;;5066204;28;19955;-81
2022/12/24 09:40:15;;;;;;;;;;;10.10;99.90;;;;;;5064165;28;20045;-82
2022/12/24 09:42:45;;;;;;;;;;;10.10;99.90;;;;;;5053960;28;21076;-83
2022/12/24 09:45:15;;;;;;;;;;;10.10;99.90;;;;;;5049056;28;19925;-81
2022/12/24 09:47:43;;;;;;;;;;;10.10;99.90;;;;;;5051383;28;19940;-81
2022/12/24 09:50:24;;;;;;;;;;;10.10;99.90;;;;;;5058521;28;20409;-82
2022/12/24 09:52:52;;;;;;;;;;;10.10;99.90;;;;;;5063292;28;19932;-81
2022/12/24 09:55:21;;;;;;;;;;;10.10;99.90;;;;;;5061866;28;19932;-82
2022/12/24 09:57:49;;;;;;;;;;;10.20;99.90;;;;;;5060043;28;19936;-84
2022/12/24 10:00:17;;;;;;;;;;;10.20;99.90;;;;;;5064280;28;19924;-82
2022/12/24 10:02:44;;;;;;;;;;;10.20;99.90;;;;;;5063655;28;19931;-81
2022/12/24 10:05:14;;;;;;;;;;;10.20;99.90;;;;;;5065427;28;19959;-82
2022/12/24 10:07:46;;;;;;;;;;;10.20;99.90;;;;;;5065098;28;20503;-83
2022/12/24 10:10:16;;;;;;;;;;;10.20;99.90;;;;;;5065331;28;19924;-83
2022/12/24 10:12:45;;;;;;;;;;;10.10;99.90;;;;;;5058450;28;21844;-82
2022/12/24 10:15:18;;;;;;;;;;;10.20;99.90;;;;;;5051341;28;19928;-82
2022/12/24 10:17:48;;;;;;;;;;;10.20;99.90;;;;;;5050429;28;19932;-84
2022/12/24 10:20:24;;;;;;;;;;;10.20;99.90;;;;;;5048623;28;20344;-84
2022/12/24 10:22:53;;;;;;;;;;;10.20;99.90;;;;;;5048072;28;20050;-81
2022/12/24 10:25:22;;;;;;;;;;;10.20;99.90;;;;;;5054354;28;19933;-84
2022/12/24 10:27:50;;;;;;;;;;;10.20;99.90;;;;;;5049322;28;19932;-82
2022/12/24 10:30:18;;;;;;;;;;;10.30;99.90;;;;;;5055035;28;19928;-83
2022/12/24 10:32:46;;;;;;;;;;;10.20;99.90;;;;;;5052949;28;19994;-82
2022/12/24 10:35:18;;;;;;;;;;;10.30;99.90;;;;;;5047085;28;20322;-82
2022/12/24 10:37:47;;;;;;;;;;;10.30;99.90;;;;;;5056855;28;19936;-83
2022/12/24 10:40:15;;;;;;;;;;;10.30;99.90;;;;;;5061512;28;19928;-84
2022/12/24 10:42:42;;;;;;;;;;;10.30;99.90;;;;;;5057864;28;19929;-83
2022/12/24 10:45:13;;;;;;;;;;;10.30;99.90;;;;;;5059895;28;20445;-82
2022/12/24 10:47:41;;;;;;;;;;;10.20;99.90;;;;;;5062741;28;19928;-82
2022/12/24 10:50:13;;;;;;;;;;;10.30;99.90;;;;;;5068341;28;19955;-79
2022/12/24 10:52:42;;;;;;;;;;;10.30;99.90;;;;;;5061900;28;20004;-82
2022/12/24 10:55:12;;;;;;;;;;;10.30;99.90;;;;;;5068895;28;19992;-85
2022/12/24 10:57:40;;;;;;;;;;;10.30;99.90;;;;;;5072704;28;19928;-83
2022/12/24 11:00:09;;;;;;;;;;;10.20;99.90;;;;;;5073665;28;19931;-82
2022/12/24 11:02:36;;;;;;;;;;;10.30;99.90;;;;;;5078236;28;19929;-86
2022/12/24 11:05:04;;;;;;;;;;;10.30;99.90;;;;;;5077602;28;19924;-84
2022/12/24 11:07:31;;;;;;;;;;;10.30;99.90;;;;;;5072740;28;19935;-84
2022/12/24 11:09:59;;;;;;;;;;;10.30;99.90;;;;;;5071360;28;19940;-84
2022/12/24 11:12:29;;;;;;;;;;;10.30;99.90;;;;;;5073097;28;19935;-84
2022/12/24 11:15:06;;;;;;;;;;;10.30;99.90;;;;;;5074578;28;19939;-84
2022/12/24 11:17:33;;;;;;;;;;;10.40;99.90;;;;;;5072787;28;19952;-83
2022/12/24 11:20:02;;;;;;;;;;;10.40;99.90;;;;;;5072458;28;19965;-85
2022/12/24 11:22:30;;;;;;;;;;;10.40;99.90;;;;;;5069113;28;19959;-84
2022/12/24 11:24:58;;;;;;;;;;;10.40;99.90;;;;;;5067841;28;19933;-85
2022/12/24 11:27:31;;;;;;;;;;;10.40;99.90;;;;;;5067212;28;19939;-84
2022/12/24 11:30:18;;;;;;;;;;;10.40;99.90;;;;;;5072698;28;19925;-83
2022/12/24 11:32:46;;;;;;;;;;;10.40;99.90;;;;;;5047999;28;19962;-83
2022/12/24 11:35:15;;;;;;;;;;;10.40;99.90;;;;;;5046763;28;19939;-84
2022/12/24 11:37:42;;;;;;;;;;;10.40;99.90;;;;;;5055527;28;19925;-86
2022/12/24 11:40:19;;;;;;;;;;;10.40;99.90;;;;;;5056889;28;19955;-85
2022/12/24 11:42:51;;;;;;;;;;;10.50;99.90;;;;;;5055584;28;19925;-85
2022/12/24 11:45:21;;;;;;;;;;;10.50;99.90;;;;;;5063933;28;19929;-84
2022/12/24 11:47:47;;;;;;;;;;;10.50;99.90;;;;;;5062444;28;19933;-85
2022/12/24 11:50:20;;;;;;;;;;;10.50;99.90;;;;;;5051005;28;19940;-84
2022/12/24 11:52:49;;;;;;;;;;;10.50;99.90;;;;;;5048655;28;19940;-84
2022/12/24 11:55:18;;;;;;;;;;;10.50;99.90;;;;;;5049455;28;19929;-83
2022/12/24 11:57:50;;;;;;;;;;;10.50;99.90;;;;;;5052277;28;19940;-86
2022/12/24 12:00:17;;;;;;;;;;;10.50;99.90;;;;;;5053636;28;20382;-85
2022/12/24 12:02:45;;;;;;;;;;;10.50;99.90;;;;;;5069177;28;19929;-85
2022/12/24 12:05:15;;;;;;;;;;;10.50;99.90;;;;;;5076359;28;19933;-85
2022/12/24 12:07:42;;;;;;;;;;;10.40;99.90;;;;;;5073197;28;19928;-84
2022/12/24 12:10:15;;;;;;;;;;;10.50;99.90;;;;;;5066516;28;19944;-87
2022/12/24 12:12:42;;;;;;;;;;;10.50;99.90;;;;;;5074558;28;19921;-86
2022/12/24 12:15:13;;;;;;;;;;;10.50;99.90;;;;;;5071644;28;20391;-83
2022/12/24 12:17:44;;;;;;;;;;;10.50;99.90;;;;;;5072345;28;19943;-85
2022/12/24 12:20:12;;;;;;;;;;;10.50;99.90;;;;;;5076467;28;19943;-86
2022/12/24 12:22:43;;;;;;;;;;;10.50;99.90;;;;;;5073856;28;19928;-84
2022/12/24 12:25:12;;;;;;;;;;;10.60;99.90;;;;;;5074076;28;19932;-86
2022/12/24 12:27:43;;;;;;;;;;;10.50;99.90;;;;;;5071805;28;19945;-85
2022/12/24 12:30:14;;;;;;;;;;;10.60;99.90;;;;;;5072887;28;19928;-85
2022/12/24 12:32:43;;;;;;;;;;;10.60;99.90;;;;;;5078014;28;20394;-84
2022/12/24 12:35:15;;;;;;;;;;;10.60;99.90;;;;;;5073566;28;19928;-85
2022/12/24 12:37:44;;;;;;;;;;;10.60;99.90;;;;;;5069040;28;19932;-84
2022/12/24 12:40:13;;;;;;;;;;;10.60;99.90;;;;;;5066714;28;20371;-84
2022/12/24 12:42:40;;;;;;;;;;;10.60;99.90;;;;;;5072436;28;19992;-86
2022/12/24 12:45:25;;;;;;;;;;;10.60;99.90;;;;;;5074270;28;19963;-82
2022/12/24 12:47:55;;;;;;;;;;;10.60;99.90;;;;;;5060051;28;19933;-83
2022/12/24 12:50:23;;;;;;;;;;;10.60;99.90;;;;;;5073352;28;19936;-83
2022/12/24 12:52:58;;;;;;;;;;;10.60;99.90;;;;;;5061824;28;20367;-83
2022/12/24 12:55:32;;;;;;;;;;;10.70;99.90;;;;;;5063313;28;20365;-82
2022/12/24 12:58:01;;;;;;;;;;;10.60;99.90;;;;;;5066879;28;19932;-83
2022/12/24 13:00:31;;;;;;;;;;;10.60;99.90;;;;;;5065903;28;19932;-82
2022/12/24 13:03:09;;;;;;;;;;;10.70;99.90;;;;;;5063538;28;19935;-82
2022/12/24 13:05:59;;;;;;;;;;;10.70;99.90;;;;;;5062771;28;19936;-82
2022/12/24 13:08:34;;;;;;;;;;;10.70;99.90;;;;;;5073420;28;19958;-82
2022/12/24 13:11:05;;;;;;;;;;;10.70;99.90;;;;;;5062865;28;19929;-83
2022/12/24 13:13:49;;;;;;;;;;;10.70;99.90;;;;;;5074017;28;19928;-82
2022/12/24 13:16:34;;;;;;;;;;;10.70;99.90;;;;;;5066025;28;19949;-83
2022/12/24 13:19:07;;;;;;;;;;;10.70;99.90;;;;;;5069107;28;20633;-81
2022/12/24 13:21:33;;;;;;;;;;;10.70;99.90;;;;;;5074631;28;19928;-82
2022/12/24 13:24:07;;;;;;;;;;;10.70;99.90;;;;;;5077889;28;19940;-82
2022/12/24 13:26:33;;;;;;;;;;;10.70;99.90;;;;;;5069606;28;19933;-83
2022/12/24 13:29:15;;;;;;;;;;;10.80;99.90;;;;;;5072401;28;20413;-84
2022/12/24 13:31:41;;;;;;;;;;;10.80;99.90;;;;;;5064921;28;19928;-83
2022/12/24 13:34:29;;;;;;;;;;;10.80;99.90;;;;;;5065979;28;19941;-82
2022/12/24 13:37:04;;;;;;;;;;;10.80;99.90;;;;;;5061328;28;20006;-82
2022/12/24 13:39:45;;;;;;;;;;;10.80;99.90;;;;;;5067738;28;19936;-82
2022/12/24 13:42:32;;;;;;;;;;;10.80;99.90;;;;;;5063674;28;19932;-82
2022/12/24 13:45:13;;;;;;;;;;;10.80;99.90;;;;;;5059148;28;19928;-81
2022/12/24 13:47:40;;;;;;;;;;;10.80;99.90;;;;;;5059273;28;19955;-82
2022/12/24 13:50:20;;;;;;;;;;;10.80;99.90;;;;;;5059583;28;21116;-81
2022/12/24 13:52:50;;;;;;;;;;;10.90;99.90;;;;;;5067077;28;19929;-82
2022/12/24 13:55:17;;;;;;;;;;;10.90;99.90;;;;;;5065317;28;19995;-81
2022/12/24 13:57:46;;;;;;;;;;;10.90;99.90;;;;;;5064433;28;19935;-81
2022/12/24 14:00:25;;;;;;;;;;;10.90;99.90;;;;;;5058262;28;20671;-81
2022/12/24 14:02:53;;;;;;;;;;;10.90;99.90;;;;;;5055396;28;19940;-81
2022/12/24 14:05:25;;;;;;;;;;;10.90;99.90;;;;;;5053553;28;19971;-82
2022/12/24 14:07:53;;;;;;;;;;;11.00;99.90;;;;;;5072941;28;19928;-82
2022/12/24 14:10:21;;;;;;;;;;;11.00;99.90;;;;;;5072542;28;19969;-81
2022/12/24 14:12:49;;;;;;;;;;;11.00;99.90;;;;;;5065161;28;19940;-80
2022/12/24 14:15:34;;;;;;;;;;;11.00;99.90;;;;;;5071884;28;19936;-81
2022/12/24 14:18:01;;;;;;;;;;;11.00;99.90;;;;;;5070366;28;19940;-81
2022/12/24 14:20:31;;;;;;;;;;;11.00;99.90;;;;;;5059828;28;19955;-82
2022/12/24 14:22:57;;;;;;;;;;;11.00;99.90;;;;;;5068002;28;19928;-82
2022/12/24 14:25:24;;;;;;;;;;;11.00;99.90;;;;;;5076732;28;19938;-81
2022/12/24 14:27:53;;;;;;;;;;;11.00;99.90;;;;;;5075338;28;19932;-81
2022/12/24 14:30:21;;;;;;;;;;;11.00;99.90;;;;;;5070620;28;19975;-82
2022/12/24 14:32:48;;;;;;;;;;;11.00;99.90;;;;;;5075565;28;19928;-82
2022/12/24 14:35:15;;;;;;;;;;;11.00;99.90;;;;;;5070285;28;19929;-82